Time;durP1;ratioP1;P1;durP2;ratioP2;P2;SDS_P1;SDS_P2;PMS_P1;PMS_P2;Temp;Humidity;BMP_temperature;BMP_pressure;BME280_temperature;BME280_humidity;BME280_pressure;Samples;Min_cycle;Max_cycle;Signal;HPM_P1;HPM_P2
2021/06/12 00:00:37;;;;;;;15.50;9.73;;;11.50;99.90;;;;;;5051601;28;20529;-76
2021/06/12 00:03:05;;;;;;;9.75;8.15;;;11.50;99.90;;;;;;5051715;28;20112;-76
2021/06/12 00:05:32;;;;;;;11.82;9.30;;;11.50;99.90;;;;;;5052980;28;20119;-76
2021/06/12 00:07:58;;;;;;;11.48;9.90;;;11.40;99.90;;;;;;5052389;28;20501;-76
2021/06/12 00:10:32;;;;;;;11.63;10.07;;;11.30;99.90;;;;;;5051645;28;20024;-76
2021/06/12 00:12:58;;;;;;;14.18;10.80;;;11.30;99.90;;;;;;5051523;28;20029;-76
2021/06/12 00:15:24;;;;;;;11.52;10.10;;;11.30;99.90;;;;;;5043458;28;20028;-76
2021/06/12 00:17:50;;;;;;;13.02;10.45;;;11.30;99.90;;;;;;5032948;28;20013;-76
2021/06/12 00:20:22;;;;;;;10.55;8.50;;;11.30;99.90;;;;;;5032860;28;20055;-76
2021/06/12 00:22:48;;;;;;;7.28;6.53;;;11.20;99.90;;;;;;5032686;28;20494;-76
2021/06/12 00:25:16;;;;;;;9.30;8.40;;;11.20;99.90;;;;;;5031561;28;20028;-76
2021/06/12 00:27:43;;;;;;;12.48;10.13;;;11.10;99.90;;;;;;5031532;28;20013;-76
2021/06/12 00:30:11;;;;;;;16.08;11.95;;;11.10;99.90;;;;;;5031407;28;20034;-76
2021/06/12 00:32:37;;;;;;;18.58;11.77;;;11.10;99.90;;;;;;5032784;28;20502;-76
2021/06/12 00:35:07;;;;;;;17.88;12.05;;;11.10;99.90;;;;;;5032690;28;20079;-76
2021/06/12 00:37:33;;;;;;;14.00;11.02;;;11.10;99.90;;;;;;5033506;28;20053;-76
2021/06/12 00:39:59;;;;;;;13.93;9.30;;;11.10;99.90;;;;;;5052582;28;20067;-76
2021/06/12 00:42:24;;;;;;;14.40;8.73;;;11.10;99.90;;;;;;5052706;28;20028;-76
2021/06/12 00:44:50;;;;;;;13.25;8.80;;;11.10;99.90;;;;;;5051307;28;20037;-76
2021/06/12 00:47:16;;;;;;;8.63;7.70;;;11.10;99.90;;;;;;5051087;28;20501;-76
2021/06/12 00:49:41;;;;;;;15.10;10.30;;;11.10;99.90;;;;;;5052563;28;20424;-76
2021/06/12 00:52:07;;;;;;;23.10;12.20;;;11.10;99.90;;;;;;5052727;28;20104;-76
2021/06/12 00:54:35;;;;;;;34.75;15.00;;;11.10;99.90;;;;;;5054845;28;20087;-76
2021/06/12 00:57:03;;;;;;;32.78;16.05;;;11.20;99.90;;;;;;5055133;28;20044;-76
2021/06/12 00:59:30;;;;;;;38.80;17.33;;;11.20;99.90;;;;;;5055123;28;20470;-76
2021/06/12 01:01:55;;;;;;;30.35;15.43;;;11.20;99.90;;;;;;5053787;28;20421;-76
2021/06/12 01:04:21;;;;;;;23.65;11.70;;;11.30;99.90;;;;;;5035133;28;20021;-76
2021/06/12 01:06:50;;;;;;;26.20;13.10;;;11.30;99.90;;;;;;5035108;28;20410;-77
2021/06/12 01:09:16;;;;;;;43.17;16.52;;;11.30;99.90;;;;;;5050547;28;20074;-76
2021/06/12 01:11:55;;;;;;;49.60;16.33;;;11.30;99.90;;;;;;5054899;28;20512;-76
2021/06/12 01:14:24;;;;;;;46.83;14.70;;;11.30;99.90;;;;;;5054804;28;20037;-76
2021/06/12 01:16:58;;;;;;;50.15;13.30;;;11.20;99.90;;;;;;5054450;28;20397;-76
2021/06/12 01:20:01;;;;;;;48.35;12.05;;;11.20;99.90;;;;;;5054762;28;20025;-76
2021/06/12 01:22:35;;;;;;;33.65;13.35;;;11.10;99.90;;;;;;5056105;28;20021;-75
2021/06/12 01:25:13;;;;;;;34.60;15.82;;;11.10;99.90;;;;;;5054516;28;20423;-75
2021/06/12 01:27:57;;;;;;;43.78;13.27;;;11.20;99.90;;;;;;5056046;28;20363;-75
2021/06/12 01:30:32;;;;;;;36.60;11.27;;;11.20;99.90;;;;;;5054587;28;20028;-76
2021/06/12 01:33:05;;;;;;;43.83;12.57;;;11.10;99.90;;;;;;5036687;28;20399;-76
2021/06/12 01:35:30;;;;;;;24.90;12.77;;;11.10;99.90;;;;;;5054495;28;20091;-75
2021/06/12 01:37:58;;;;;;;30.95;12.77;;;11.10;99.90;;;;;;5055228;28;20017;-76
2021/06/12 01:40:28;;;;;;;31.90;12.68;;;11.10;99.90;;;;;;5054408;28;20028;-76
2021/06/12 01:42:54;;;;;;;67.63;16.45;;;11.10;99.90;;;;;;5054281;28;20386;-76
2021/06/12 01:45:22;;;;;;;20.80;11.10;;;11.10;99.90;;;;;;5055753;28;20045;-76
2021/06/12 01:47:48;;;;;;;20.83;11.10;;;11.10;99.90;;;;;;5053958;28;20478;-76
2021/06/12 01:50:16;;;;;;;36.45;13.50;;;11.10;99.90;;;;;;5054154;28;20028;-75
2021/06/12 01:52:43;;;;;;;25.02;13.55;;;11.10;99.90;;;;;;5053739;28;20394;-75
2021/06/12 01:55:11;;;;;;;48.50;17.73;;;11.10;99.90;;;;;;5055223;28;20459;-75
2021/06/12 01:57:40;;;;;;;45.30;15.48;;;11.10;99.90;;;;;;5055219;28;20032;-76
2021/06/12 02:00:06;;;;;;;24.42;15.02;;;11.10;99.90;;;;;;5055219;28;20079;-75
2021/06/12 02:02:33;;;;;;;37.60;15.30;;;11.20;99.90;;;;;;5055018;28;20025;-76
2021/06/12 02:05:01;;;;;;;26.50;16.90;;;11.20;99.90;;;;;;5052972;28;20032;-76
2021/06/12 02:07:29;;;;;;;33.03;15.07;;;11.20;99.90;;;;;;5055197;28;20021;-76
2021/06/12 02:09:55;;;;;;;26.38;15.75;;;11.20;99.90;;;;;;5053741;28;20029;-75
2021/06/12 02:12:21;;;;;;;24.20;14.32;;;11.30;99.90;;;;;;5055036;28;20083;-76
2021/06/12 02:14:48;;;;;;;32.65;13.43;;;11.20;99.90;;;;;;5053688;28;20116;-76
2021/06/12 02:17:16;;;;;;;21.23;10.82;;;11.20;99.90;;;;;;5054778;28;20564;-76
2021/06/12 02:19:42;;;;;;;23.75;11.30;;;11.10;99.90;;;;;;5035369;28;20033;-76
2021/06/12 02:22:08;;;;;;;21.98;11.00;;;11.10;99.90;;;;;;5033684;28;20021;-76
2021/06/12 02:24:34;;;;;;;20.77;10.82;;;11.00;99.90;;;;;;5034903;28;20387;-76
2021/06/12 02:27:01;;;;;;;21.60;11.07;;;11.00;99.90;;;;;;5033562;28;20049;-76
2021/06/12 02:29:28;;;;;;;20.38;10.60;;;11.00;99.90;;;;;;5034864;28;20057;-75
2021/06/12 02:32:08;;;;;;;15.65;10.20;;;11.00;99.90;;;;;;5047860;28;20505;-76
2021/06/12 02:34:36;;;;;;;16.33;10.00;;;10.90;99.90;;;;;;5053415;28;20029;-76
2021/06/12 02:37:04;;;;;;;19.70;11.20;;;10.80;99.90;;;;;;5053272;28;20047;-75
2021/06/12 02:39:29;;;;;;;18.23;11.48;;;10.80;99.90;;;;;;5054590;28;20059;-76
2021/06/12 02:41:55;;;;;;;20.90;11.93;;;10.80;99.90;;;;;;5053175;28;20503;-76
2021/06/12 02:44:21;;;;;;;16.65;10.73;;;10.80;99.90;;;;;;5052868;28;20029;-76
2021/06/12 02:46:48;;;;;;;19.45;11.90;;;10.80;99.90;;;;;;5054429;28;20032;-75
2021/06/12 02:49:16;;;;;;;29.23;13.05;;;10.80;99.90;;;;;;5054105;28;20029;-75
2021/06/12 02:51:47;;;;;;;26.00;12.13;;;10.70;99.90;;;;;;5054327;28;20033;-76
2021/06/12 02:54:15;;;;;;;17.27;11.55;;;10.70;99.90;;;;;;5053162;28;20043;-75
2021/06/12 02:56:44;;;;;;;27.95;12.05;;;10.70;99.90;;;;;;5054032;28;20033;-76
2021/06/12 02:59:16;;;;;;;27.00;12.48;;;10.70;99.90;;;;;;5054070;28;20078;-76
2021/06/12 03:01:42;;;;;;;26.48;13.73;;;10.80;99.90;;;;;;5052854;28;20036;-76
2021/06/12 03:04:12;;;;;;;35.10;13.52;;;10.80;99.90;;;;;;5052774;28;20032;-75
2021/06/12 03:06:38;;;;;;;28.85;12.88;;;10.80;99.90;;;;;;5052828;28;20067;-76
2021/06/12 03:09:06;;;;;;;26.02;13.40;;;10.90;99.90;;;;;;5053751;28;20139;-75
2021/06/12 03:11:33;;;;;;;25.58;12.30;;;10.80;99.90;;;;;;5052682;28;20478;-76
2021/06/12 03:13:59;;;;;;;33.15;14.63;;;10.90;99.90;;;;;;5053728;28;20033;-76
2021/06/12 03:16:26;;;;;;;23.05;12.52;;;10.90;99.90;;;;;;5051579;28;20032;-76
2021/06/12 03:18:53;;;;;;;71.70;17.65;;;10.90;99.90;;;;;;5052166;28;20517;-75
2021/06/12 03:21:25;;;;;;;22.75;13.45;;;10.90;99.90;;;;;;5052498;28;20024;-76
2021/06/12 03:23:55;;;;;;;22.40;13.88;;;10.80;99.90;;;;;;5053514;28;20029;-76
2021/06/12 03:26:22;;;;;;;31.33;15.25;;;10.80;99.90;;;;;;5053738;28;20032;-75
2021/06/12 03:28:49;;;;;;;22.55;13.80;;;10.80;99.90;;;;;;5052306;28;20028;-76
2021/06/12 03:31:16;;;;;;;39.70;14.93;;;10.90;99.90;;;;;;5052308;28;20032;-76
2021/06/12 03:33:41;;;;;;;42.67;15.38;;;11.00;99.90;;;;;;5053558;28;20086;-76
2021/06/12 03:36:09;;;;;;;30.75;13.93;;;10.90;99.90;;;;;;5053352;28;20017;-76
2021/06/12 03:38:35;;;;;;;31.52;15.35;;;11.00;99.90;;;;;;5052041;28;20036;-75
2021/06/12 03:41:01;;;;;;;30.20;15.63;;;11.10;99.90;;;;;;5052027;28;20052;-76
2021/06/12 03:43:28;;;;;;;34.47;16.88;;;11.20;99.90;;;;;;5052133;28;20482;-75
2021/06/12 03:45:56;;;;;;;26.63;16.00;;;11.40;99.90;;;;;;5051880;28;20025;-75
2021/06/12 03:48:23;;;;;;;95.78;21.48;;;11.50;99.90;;;;;;5048505;28;20052;-76
2021/06/12 03:50:51;;;;;;;57.33;19.55;;;11.50;99.90;;;;;;5035257;28;20026;-76
2021/06/12 03:53:18;;;;;;;52.75;17.88;;;11.60;99.90;;;;;;5053214;28;20406;-76
2021/06/12 03:55:45;;;;;;;52.88;17.30;;;11.70;99.90;;;;;;5053158;28;20071;-76
2021/06/12 03:58:12;;;;;;;45.92;15.88;;;11.80;99.90;;;;;;5053125;28;20056;-75
2021/06/12 04:00:38;;;;;;;27.98;15.30;;;11.80;99.90;;;;;;5053101;28;20094;-75
2021/06/12 04:03:03;;;;;;;37.58;17.80;;;11.80;99.90;;;;;;5052795;28;20021;-76
2021/06/12 04:05:29;;;;;;;23.90;15.32;;;11.90;99.90;;;;;;5051693;28;20029;-76
2021/06/12 04:07:56;;;;;;;39.72;18.02;;;12.10;99.90;;;;;;5051604;28;20025;-76
2021/06/12 04:10:22;;;;;;;31.75;17.23;;;12.20;99.90;;;;;;5051680;28;20021;-76
2021/06/12 04:12:47;;;;;;;31.25;18.70;;;12.40;99.90;;;;;;5052854;28;20029;-76
2021/06/12 04:15:13;;;;;;;64.20;18.35;;;12.50;99.90;;;;;;5052842;28;20489;-76
2021/06/12 04:17:40;;;;;;;61.60;19.17;;;12.60;99.90;;;;;;5052717;28;20494;-77
2021/06/12 04:20:06;;;;;;;44.55;18.00;;;12.60;99.90;;;;;;5052718;28;20108;-76
2021/06/12 04:22:31;;;;;;;95.07;22.20;;;12.70;99.90;;;;;;5053003;28;20025;-76
2021/06/12 04:24:57;;;;;;;55.20;20.40;;;12.70;99.90;;;;;;5052724;28;20024;-76
2021/06/12 04:27:23;;;;;;;102.43;23.40;;;12.80;99.90;;;;;;5051197;28;20013;-76
2021/06/12 04:29:48;;;;;;;56.50;22.88;;;12.90;99.90;;;;;;5051360;28;20116;-76
2021/06/12 04:32:14;;;;;;;106.55;25.83;;;13.00;99.90;;;;;;5052579;28;20375;-76
2021/06/12 04:34:40;;;;;;;38.13;23.05;;;13.00;99.90;;;;;;5051039;28;20053;-76
2021/06/12 04:37:07;;;;;;;82.68;24.38;;;13.00;99.90;;;;;;5051358;28;20119;-76
2021/06/12 04:39:33;;;;;;;74.70;22.40;;;13.10;99.90;;;;;;5051388;28;20493;-76
2021/06/12 04:41:59;;;;;;;75.05;21.48;;;13.10;99.90;;;;;;5051336;28;20025;-76
2021/06/12 04:44:24;;;;;;;49.47;20.30;;;13.10;99.90;;;;;;5051307;28;20037;-76
2021/06/12 04:46:50;;;;;;;58.13;22.48;;;13.20;99.90;;;;;;5052407;28;20029;-76
2021/06/12 04:49:16;;;;;;;36.28;22.50;;;13.30;99.90;;;;;;5051268;28;20374;-76
2021/06/12 04:51:42;;;;;;;40.05;23.27;;;13.50;99.90;;;;;;5052335;28;20091;-75
2021/06/12 04:54:07;;;;;;;54.83;26.73;;;13.60;99.90;;;;;;5052438;28;20211;-76
2021/06/12 04:56:33;;;;;;;41.20;22.67;;;13.80;99.90;;;;;;5052630;28;20497;-76
2021/06/12 04:58:59;;;;;;;50.17;24.60;;;14.10;99.90;;;;;;5051061;28;20021;-76
2021/06/12 05:01:25;;;;;;;43.40;23.27;;;14.20;99.90;;;;;;5051311;28;20057;-76
2021/06/12 05:03:50;;;;;;;79.47;25.38;;;14.40;99.90;;;;;;5051118;28;20482;-76
2021/06/12 05:06:16;;;;;;;47.08;24.55;;;14.60;99.90;;;;;;5052346;28;20147;-76
2021/06/12 05:08:41;;;;;;;47.72;25.73;;;14.60;99.90;;;;;;5051034;28;20040;-76
2021/06/12 05:11:07;;;;;;;56.35;27.00;;;14.90;99.90;;;;;;5052276;28;20025;-75
2021/06/12 05:13:34;;;;;;;45.05;25.55;;;14.90;99.90;;;;;;5052368;28;20044;-76
2021/06/12 05:16:01;;;;;;;51.33;24.90;;;15.00;99.90;;;;;;5052013;28;20025;-76
2021/06/12 05:18:41;;;;;;;61.97;24.80;;;15.00;99.90;;;;;;5048972;28;21066;-76
2021/06/12 05:21:07;;;;;;;35.15;22.60;;;15.00;99.90;;;;;;5050620;28;20017;-76
2021/06/12 05:23:34;;;;;;;47.80;26.80;;;14.90;99.90;;;;;;5047366;28;20406;-75
2021/06/12 05:26:00;;;;;;;41.35;24.90;;;15.00;99.90;;;;;;5032174;28;20029;-75
2021/06/12 05:28:25;;;;;;;51.22;27.60;;;15.00;99.90;;;;;;5032365;28;20026;-76
2021/06/12 05:30:51;;;;;;;52.88;27.90;;;15.20;99.90;;;;;;5032236;28;20021;-75
2021/06/12 05:33:17;;;;;;;53.88;27.60;;;15.30;99.90;;;;;;5049187;28;20033;-75
2021/06/12 05:35:42;;;;;;;53.67;29.83;;;15.40;99.90;;;;;;5052103;28;20521;-75
2021/06/12 05:38:08;;;;;;;60.58;32.75;;;15.50;99.90;;;;;;5052110;28;20060;-75
2021/06/12 05:40:34;;;;;;;51.40;30.90;;;15.60;99.90;;;;;;5055576;28;20056;-75
2021/06/12 05:43:00;;;;;;;49.72;29.83;;;15.70;99.90;;;;;;5050274;28;20035;-75
2021/06/12 05:45:25;;;;;;;53.67;33.85;;;15.80;99.90;;;;;;5045135;28;20467;-75
2021/06/12 05:47:51;;;;;;;49.80;31.52;;;16.00;99.90;;;;;;5047809;28;20021;-76
2021/06/12 05:50:17;;;;;;;48.47;30.73;;;16.20;99.90;;;;;;5044791;28;20029;-75
2021/06/12 05:52:43;;;;;;;50.58;32.08;;;16.20;99.90;;;;;;5034642;28;20030;-75
2021/06/12 05:55:09;;;;;;;50.33;32.47;;;16.30;99.90;;;;;;5033107;28;20025;-75
2021/06/12 05:57:34;;;;;;;47.95;30.20;;;16.30;99.90;;;;;;5033482;28;20394;-75
2021/06/12 06:00:00;;;;;;;49.13;31.88;;;16.30;99.90;;;;;;5031761;28;20074;-75
2021/06/12 06:02:25;;;;;;;52.78;32.42;;;16.50;99.90;;;;;;5033232;28;20471;-76
2021/06/12 06:04:51;;;;;;;49.55;32.72;;;16.60;99.90;;;;;;5035748;28;20021;-75
2021/06/12 06:07:17;;;;;;;46.08;31.35;;;16.70;99.90;;;;;;5053087;28;20449;-75
2021/06/12 06:09:43;;;;;;;49.30;31.90;;;16.90;99.90;;;;;;5053017;28;20037;-75
2021/06/12 06:12:09;;;;;;;50.00;32.22;;;17.10;99.90;;;;;;5052932;28;20029;-76
2021/06/12 06:14:35;;;;;;;53.58;33.38;;;17.20;99.90;;;;;;5053821;28;20033;-75
2021/06/12 06:17:01;;;;;;;51.10;33.83;;;17.40;99.90;;;;;;5055031;28;20451;-75
2021/06/12 06:19:26;;;;;;;52.75;34.70;;;17.40;99.90;;;;;;5049455;28;20382;-75
2021/06/12 06:21:52;;;;;;;47.13;31.90;;;17.50;99.90;;;;;;5050369;28;20029;-75
2021/06/12 06:24:18;;;;;;;51.72;32.58;;;17.70;99.90;;;;;;5054214;28;20032;-75
2021/06/12 06:26:43;;;;;;;53.13;32.92;;;17.90;99.90;;;;;;5053081;28;20513;-76
2021/06/12 06:29:09;;;;;;;43.28;30.52;;;18.10;99.90;;;;;;5054148;28;20053;-75
2021/06/12 06:31:35;;;;;;;39.58;25.48;;;18.20;99.90;;;;;;5054628;28;20028;-76
2021/06/12 06:34:00;;;;;;;32.15;23.20;;;18.30;99.90;;;;;;5051386;28;20437;-75
2021/06/12 06:36:26;;;;;;;36.00;24.65;;;18.50;99.90;;;;;;5039149;28;20096;-75
2021/06/12 06:38:52;;;;;;;33.08;24.08;;;18.70;99.90;;;;;;5042280;28;20084;-75
2021/06/12 06:41:18;;;;;;;34.47;24.27;;;18.80;99.90;;;;;;5039266;28;20530;-75
2021/06/12 06:43:43;;;;;;;34.80;23.60;;;19.00;99.90;;;;;;5052692;28;20071;-75
2021/06/12 06:46:09;;;;;;;34.05;23.55;;;19.10;97.10;;;;;;5050350;28;20033;-75
2021/06/12 06:48:34;;;;;;;34.85;24.00;;;19.20;96.60;;;;;;5053321;28;20061;-75
2021/06/12 06:51:00;;;;;;;32.13;23.02;;;19.40;94.30;;;;;;5053307;28;20029;-75
2021/06/12 06:53:32;;;;;;;26.45;20.50;;;19.50;92.90;;;;;;5039151;28;20045;-76
2021/06/12 06:56:03;;;;;;;27.05;19.58;;;19.70;90.00;;;;;;5034380;28;20021;-75
2021/06/12 06:58:29;;;;;;;31.55;22.25;;;19.80;84.60;;;;;;5034350;28;20022;-75
2021/06/12 07:00:55;;;;;;;34.75;21.35;;;19.90;88.20;;;;;;5034111;28;20057;-75
2021/06/12 07:03:21;;;;;;;27.65;20.73;;;20.00;92.20;;;;;;5032115;28;20072;-75
2021/06/12 07:05:46;;;;;;;27.33;20.67;;;20.20;92.00;;;;;;5039844;28;20057;-75
2021/06/12 07:08:12;;;;;;;28.17;19.55;;;20.40;89.30;;;;;;5041390;28;20033;-75
2021/06/12 07:10:38;;;;;;;33.58;23.85;;;20.50;84.20;;;;;;5036361;28;20021;-75
2021/06/12 07:13:04;;;;;;;37.03;22.73;;;20.40;84.10;;;;;;5049511;28;20497;-75
2021/06/12 07:15:30;;;;;;;31.45;21.58;;;20.40;87.00;;;;;;5053076;28;20066;-75
2021/06/12 07:17:56;;;;;;;29.35;19.98;;;20.60;85.30;;;;;;5052439;28;20021;-75
2021/06/12 07:20:23;;;;;;;28.63;17.98;;;20.60;83.10;;;;;;5052284;28;20029;-76
2021/06/12 07:22:48;;;;;;;21.95;16.80;;;20.80;83.70;;;;;;5052119;28;20021;-76
2021/06/12 07:25:14;;;;;;;26.13;16.98;;;21.10;83.50;;;;;;5050385;28;20095;-76
2021/06/12 07:27:40;;;;;;;20.63;15.40;;;21.20;76.90;;;;;;5036350;28;20029;-76
2021/06/12 07:30:06;;;;;;;18.55;13.73;;;21.40;76.20;;;;;;5031066;28;20403;-76
2021/06/12 07:32:32;;;;;;;22.00;14.60;;;21.60;75.40;;;;;;5033068;28;20474;-74
2021/06/12 07:34:58;;;;;;;20.02;13.80;;;21.80;73.50;;;;;;5032690;28;20037;-77
2021/06/12 07:37:23;;;;;;;21.77;12.73;;;21.90;71.50;;;;;;5031872;28;20024;-76
2021/06/12 07:39:49;;;;;;;20.15;14.48;;;22.10;70.70;;;;;;5039660;28;20053;-76
2021/06/12 07:42:15;;;;;;;24.25;15.10;;;22.20;70.50;;;;;;5052160;28;20033;-76
2021/06/12 07:44:41;;;;;;;16.65;13.75;;;22.20;68.60;;;;;;5052052;28;20137;-76
2021/06/12 07:47:07;;;;;;;19.33;14.50;;;22.30;67.40;;;;;;5053261;28;20049;-76
2021/06/12 07:49:33;;;;;;;19.88;14.43;;;22.20;65.90;;;;;;5053179;28;20021;-76
2021/06/12 07:51:58;;;;;;;22.27;15.00;;;22.40;67.90;;;;;;5053238;28;20107;-76
2021/06/12 07:54:24;;;;;;;23.02;15.95;;;22.40;68.10;;;;;;5052672;28;20061;-76
2021/06/12 07:56:50;;;;;;;25.92;17.02;;;22.30;66.80;;;;;;5053081;28;20151;-76
2021/06/12 07:59:16;;;;;;;24.63;16.77;;;22.60;69.20;;;;;;5053125;28;20025;-76
2021/06/12 08:01:41;;;;;;;24.67;14.68;;;22.70;67.90;;;;;;5052529;28;20390;-76
2021/06/12 08:04:07;;;;;;;18.42;13.95;;;22.90;69.00;;;;;;5052861;28;20053;-76
2021/06/12 08:06:33;;;;;;;17.85;12.27;;;23.00;65.50;;;;;;5053114;28;20025;-76
2021/06/12 08:08:59;;;;;;;17.35;11.88;;;23.00;66.40;;;;;;5051462;28;20132;-77
2021/06/12 08:11:24;;;;;;;18.67;12.73;;;23.00;63.00;;;;;;5053034;28;20063;-76
2021/06/12 08:13:50;;;;;;;15.23;12.10;;;23.10;60.60;;;;;;5051447;28;20036;-74
2021/06/12 08:16:16;;;;;;;18.55;13.48;;;23.00;62.10;;;;;;5052706;28;20135;-74
2021/06/12 08:18:41;;;;;;;21.05;13.43;;;23.00;63.80;;;;;;5053103;28;20033;-74
2021/06/12 08:21:07;;;;;;;18.15;13.10;;;23.00;64.60;;;;;;5052752;28;20458;-74
2021/06/12 08:23:33;;;;;;;20.30;13.57;;;23.00;63.20;;;;;;5052767;28;20029;-74
2021/06/12 08:25:59;;;;;;;18.83;12.80;;;23.00;62.20;;;;;;5051157;28;20056;-74
2021/06/12 08:28:24;;;;;;;15.77;11.48;;;23.10;65.90;;;;;;5052942;28;20021;-74
2021/06/12 08:30:50;;;;;;;18.02;11.55;;;23.10;65.40;;;;;;5052690;28;20498;-74
2021/06/12 08:33:16;;;;;;;10.95;9.73;;;23.00;63.90;;;;;;5051422;28;20059;-74
2021/06/12 08:35:41;;;;;;;10.23;8.95;;;22.90;60.20;;;;;;5051431;28;20018;-74
2021/06/12 08:38:08;;;;;;;12.13;8.60;;;22.90;59.90;;;;;;5052642;28;20029;-74
2021/06/12 08:40:33;;;;;;;11.80;8.68;;;23.10;60.00;;;;;;5052398;28;20021;-74
2021/06/12 08:42:59;;;;;;;12.50;9.63;;;23.30;58.90;;;;;;5051372;28;20509;-74
2021/06/12 08:45:28;;;;;;;16.20;12.07;;;23.50;58.90;;;;;;5052893;28;20033;-74
2021/06/12 08:47:56;;;;;;;10.75;9.32;;;23.70;59.50;;;;;;5052368;28;20025;-74
2021/06/12 08:50:25;;;;;;;11.95;9.15;;;23.70;60.30;;;;;;5051299;28;20033;-74
2021/06/12 08:52:54;;;;;;;14.20;8.63;;;23.90;61.70;;;;;;5034032;28;20052;-74
2021/06/12 08:55:20;;;;;;;10.60;7.97;;;23.90;56.60;;;;;;5046823;28;20025;-75
2021/06/12 08:57:46;;;;;;;9.27;8.38;;;23.70;56.00;;;;;;5052299;28;20103;-74
2021/06/12 09:00:13;;;;;;;10.32;7.18;;;23.50;56.70;;;;;;5041564;28;20427;-74
2021/06/12 09:03:11;;;;;;;8.90;7.68;;;23.50;57.90;;;;;;5040640;28;20104;-74
2021/06/12 09:05:56;;;;;;;10.65;8.25;;;24.00;58.90;;;;;;5036959;28;20041;-73
2021/06/12 09:08:30;;;;;;;10.57;7.88;;;24.10;56.20;;;;;;5029207;28;20108;-76
2021/06/12 09:11:12;;;;;;;9.13;6.80;;;24.40;56.70;;;;;;5060679;28;20486;-77
2021/06/12 09:13:43;;;;;;;9.73;7.50;;;24.60;56.70;;;;;;5046019;28;20144;-76
2021/06/12 09:16:32;;;;;;;9.27;7.57;;;24.80;55.40;;;;;;5044652;28;20064;-75
2021/06/12 09:19:23;;;;;;;11.48;7.50;;;24.80;53.20;;;;;;5032264;28;20491;-74
2021/06/12 09:21:50;;;;;;;8.95;7.25;;;24.80;54.30;;;;;;5033151;28;20522;-75
2021/06/12 09:24:35;;;;;;;10.32;7.90;;;25.30;54.60;;;;;;5041216;28;20041;-75
2021/06/12 09:27:13;;;;;;;12.30;7.68;;;25.50;53.90;;;;;;5053616;28;20083;-75
2021/06/12 09:29:41;;;;;;;9.68;7.85;;;25.50;53.20;;;;;;5052679;28;20021;-74
2021/06/12 09:32:45;;;;;;;7.60;6.13;;;25.50;52.50;;;;;;5049550;28;20021;-74
2021/06/12 09:35:11;;;;;;;7.32;6.25;;;25.40;51.10;;;;;;5050686;28;20044;-76
2021/06/12 09:37:37;;;;;;;11.32;6.85;;;25.10;50.40;;;;;;5051863;28;20017;-77
2021/06/12 09:40:15;;;;;;;8.13;6.07;;;24.90;51.40;;;;;;5049025;28;20029;-77
2021/06/12 09:42:55;;;;;;;5.22;4.72;;;24.90;53.10;;;;;;5048945;28;20044;-77
2021/06/12 09:45:24;;;;;;;8.05;6.57;;;25.00;51.20;;;;;;5044892;28;20033;-76
2021/06/12 09:47:50;;;;;;;10.23;7.45;;;25.00;52.70;;;;;;5044011;28;20029;-76
2021/06/12 09:50:20;;;;;;;9.93;6.78;;;25.10;52.30;;;;;;5045527;28;20028;-77
2021/06/12 09:52:48;;;;;;;9.23;5.90;;;25.00;51.90;;;;;;5054018;28;20033;-77
2021/06/12 09:55:41;;;;;;;8.93;6.15;;;25.10;52.40;;;;;;5055395;28;20025;-76
2021/06/12 09:58:06;;;;;;;8.45;6.35;;;25.30;53.40;;;;;;5048063;28;20041;-76
2021/06/12 10:00:40;;;;;;;6.05;5.45;;;25.40;51.20;;;;;;5038042;28;20549;-77
2021/06/12 10:03:27;;;;;;;6.25;5.20;;;25.50;50.60;;;;;;5055285;28;20033;-77
2021/06/12 10:06:19;;;;;;;6.18;5.63;;;25.30;51.90;;;;;;5055097;28;20517;-77
2021/06/12 10:08:49;;;;;;;6.22;4.75;;;25.10;50.50;;;;;;5055287;28;20070;-76
2021/06/12 10:11:15;;;;;;;6.72;6.03;;;24.80;51.20;;;;;;5054828;28;20108;-76
2021/06/12 10:13:45;;;;;;;6.05;5.53;;;24.60;51.30;;;;;;5054137;28;20033;-76
2021/06/12 10:16:12;;;;;;;7.28;5.80;;;24.60;53.10;;;;;;5047671;28;20033;-76
2021/06/12 10:18:40;;;;;;;8.52;6.10;;;24.50;52.60;;;;;;5045074;28;20490;-77
2021/06/12 10:21:09;;;;;;;6.85;5.68;;;24.70;52.70;;;;;;5039795;28;20091;-77
2021/06/12 10:23:37;;;;;;;7.75;5.72;;;25.00;53.30;;;;;;5045386;28;20083;-77
2021/06/12 10:26:03;;;;;;;10.93;5.85;;;25.30;53.20;;;;;;5041544;28;20021;-77
2021/06/12 10:28:29;;;;;;;7.40;6.63;;;25.70;51.70;;;;;;5043598;28;20033;-77
2021/06/12 10:30:55;;;;;;;8.20;5.60;;;25.60;49.70;;;;;;5043595;28;20083;-77
2021/06/12 10:33:22;;;;;;;9.35;6.80;;;25.60;50.70;;;;;;5043298;28;20041;-78
2021/06/12 10:35:48;;;;;;;7.18;6.05;;;25.40;51.40;;;;;;5046810;28;20051;-77
2021/06/12 10:38:15;;;;;;;7.00;6.30;;;25.00;49.50;;;;;;5042690;28;20044;-77
2021/06/12 10:40:53;;;;;;;7.25;6.18;;;25.10;50.60;;;;;;5040136;28;20039;-77
2021/06/12 10:43:23;;;;;;;10.18;6.55;;;25.10;51.60;;;;;;5040444;28;20022;-75
2021/06/12 10:46:04;;;;;;;7.55;6.55;;;24.80;51.70;;;;;;5046475;28;20052;-76
2021/06/12 10:48:43;;;;;;;7.68;6.88;;;24.80;51.70;;;;;;5044800;28;20031;-76
2021/06/12 10:51:27;;;;;;;11.20;6.82;;;24.70;52.00;;;;;;5041903;28;20079;-76
2021/06/12 10:54:12;;;;;;;7.50;6.68;;;24.70;52.00;;;;;;5042441;28;20041;-76
2021/06/12 10:57:11;;;;;;;9.35;7.28;;;24.90;51.50;;;;;;5045334;28;20115;-76
2021/06/12 10:59:36;;;;;;;7.20;6.55;;;24.90;50.80;;;;;;5047628;28;20033;-76
2021/06/12 11:02:18;;;;;;;7.60;6.78;;;25.30;51.60;;;;;;5050248;28;20403;-75
2021/06/12 11:05:01;;;;;;;7.65;6.63;;;25.40;50.80;;;;;;5043147;28;20018;-75
2021/06/12 11:07:43;;;;;;;8.18;7.35;;;25.10;50.50;;;;;;5040411;28;20084;-76
2021/06/12 11:10:44;;;;;;;9.35;7.35;;;25.20;52.60;;;;;;5038715;28;20079;-76
2021/06/12 11:13:20;;;;;;;11.73;7.53;;;25.00;51.40;;;;;;5028326;28;20049;-76
2021/06/12 11:15:46;;;;;;;8.70;7.22;;;25.30;52.60;;;;;;5044978;28;20067;-76
2021/06/12 11:18:16;;;;;;;17.40;9.25;;;25.60;53.30;;;;;;5038635;28;20446;-76
2021/06/12 11:21:03;;;;;;;8.77;6.70;;;25.60;50.50;;;;;;5035210;28;20026;-77
2021/06/12 11:23:55;;;;;;;19.25;10.18;;;25.70;51.30;;;;;;5033127;28;20025;-77
2021/06/12 11:26:22;;;;;;;24.95;10.75;;;25.70;50.40;;;;;;5035603;28;20022;-76
2021/06/12 11:29:09;;;;;;;47.28;14.43;;;25.60;49.00;;;;;;5041660;28;20103;-76
2021/06/12 11:31:37;;;;;;;6.35;5.78;;;25.90;51.40;;;;;;5040279;28;20056;-76
2021/06/12 11:34:18;;;;;;;6.90;6.30;;;25.70;49.00;;;;;;5041893;28;20509;-76
2021/06/12 11:36:48;;;;;;;6.78;6.13;;;25.60;48.70;;;;;;5041884;28;20025;-77
2021/06/12 11:39:14;;;;;;;6.78;6.10;;;25.70;49.10;;;;;;5048119;28;20110;-77
2021/06/12 11:41:40;;;;;;;8.07;7.25;;;25.80;50.00;;;;;;5040868;28;20028;-77
2021/06/12 11:44:07;;;;;;;8.50;6.13;;;25.90;49.70;;;;;;5045072;28;20371;-76
2021/06/12 11:46:43;;;;;;;7.15;6.55;;;26.20;49.90;;;;;;5038170;28;20056;-76
2021/06/12 11:49:12;;;;;;;8.25;6.70;;;26.30;50.10;;;;;;5037857;28;20021;-76
2021/06/12 11:51:42;;;;;;;8.90;7.22;;;26.50;49.40;;;;;;5031204;28;20025;-76
2021/06/12 11:54:13;;;;;;;10.85;6.93;;;26.30;48.00;;;;;;5032113;28;20479;-76
2021/06/12 11:56:50;;;;;;;9.07;6.80;;;26.30;48.50;;;;;;5043804;28;20454;-76
2021/06/12 11:59:17;;;;;;;8.57;6.22;;;26.30;48.50;;;;;;5044980;28;20044;-75
2021/06/12 12:01:47;;;;;;;5.78;5.25;;;26.20;47.70;;;;;;5041825;28;20543;-76
2021/06/12 12:04:17;;;;;;;6.60;5.80;;;26.40;48.50;;;;;;5035099;28;20030;-75
2021/06/12 12:06:51;;;;;;;7.40;6.70;;;26.50;48.60;;;;;;5041728;28;20086;-76
2021/06/12 12:09:27;;;;;;;7.05;6.45;;;26.50;49.20;;;;;;5043837;28;20023;-76
2021/06/12 12:11:55;;;;;;;10.18;6.28;;;26.40;48.80;;;;;;5039360;28;20045;-76
2021/06/12 12:14:34;;;;;;;8.45;6.00;;;26.40;48.90;;;;;;5034434;28;20045;-76
2021/06/12 12:17:01;;;;;;;6.97;6.28;;;26.40;48.90;;;;;;5042662;28;20033;-77
2021/06/12 12:19:27;;;;;;;7.10;6.40;;;26.40;49.20;;;;;;5044221;28;20017;-76
2021/06/12 12:21:56;;;;;;;5.03;4.65;;;26.40;48.00;;;;;;5033416;28;20069;-76
2021/06/12 12:24:22;;;;;;;5.55;5.05;;;26.70;48.20;;;;;;5040895;28;20112;-76
2021/06/12 12:27:00;;;;;;;6.25;5.10;;;26.80;47.90;;;;;;5031885;28;20525;-76
2021/06/12 12:29:26;;;;;;;5.85;4.82;;;27.10;48.00;;;;;;5029579;28;20021;-76
2021/06/12 12:31:53;;;;;;;5.50;4.93;;;27.10;47.00;;;;;;5029173;28;20026;-77
2021/06/12 12:34:29;;;;;;;6.32;5.05;;;26.90;46.70;;;;;;5027902;28;20034;-77
2021/06/12 12:36:55;;;;;;;5.80;5.32;;;26.70;46.10;;;;;;5037854;28;20386;-76
2021/06/12 12:39:22;;;;;;;5.88;5.38;;;26.40;47.70;;;;;;5046280;28;20028;-77
2021/06/12 12:41:57;;;;;;;5.72;5.30;;;26.20;46.80;;;;;;5029523;28;20052;-75